EXS68M EGKK-LEAL
Flight info
| Callsign | EXS68M |
|---|---|
| Flight time | 2h 3m |
| Altitude | 37000 |
| Route | BOGNA L612 BENBO Y47 DRAKE L151 SITET UN859 SOPIL DCT BALAN DCT LMG DCT PIMQO DCT AGN DCT ANETO DCT POSSY DCT XIMPE DCT RIMES DCT SAURA DCT TATOS N860 PLANA DCT VLC |
| Aircraft | A21N/M-SDE2E3FGHIRWXY/LB1 |
Departure
| Time | 2026-05-06 19:56 |
|---|---|
| Airport | London Gatwick Airport (EGKK) |
Arrival
| Time | 2026-05-06 21:59 |
|---|---|
| Airport | Alicante-Elche Miguel Hernández Airport (LEAL) |
| Time | Latitude | Longitude | Altitude | Speed | Heading |
|---|---|---|---|---|---|
| 2026-05-06 19:09 | 51.15470 | -0.17091 | 205 ft | 0 kts | 348° |
| 2026-05-06 19:10 | 51.15459 | -0.17169 | 217 ft | 0 kts | 36° |
| 2026-05-06 19:43 | 51.15443 | -0.17187 | 215 ft | 4 kts | 38° |
| 2026-05-06 19:43 | 51.15422 | -0.17215 | 208 ft | 4 kts | 47° |
| 2026-05-06 19:43 | 51.15405 | -0.17247 | 217 ft | 4 kts | 69° |
| 2026-05-06 19:43 | 51.15401 | -0.17281 | 215 ft | 2 kts | 121° |
| 2026-05-06 19:44 | 51.15401 | -0.17283 | 215 ft | 0 kts | 121° |
| 2026-05-06 19:47 | 51.15398 | -0.17277 | 215 ft | 3 kts | 123° |
| 2026-05-06 19:47 | 51.15387 | -0.17281 | 215 ft | 1 kts | 201° |
| 2026-05-06 19:47 | 51.15371 | -0.17302 | 207 ft | 5 kts | 224° |
| 2026-05-06 19:47 | 51.15342 | -0.17359 | 214 ft | 8 kts | 220° |
| 2026-05-06 19:48 | 51.15301 | -0.17434 | 207 ft | 10 kts | 257° |
| 2026-05-06 19:48 | 51.15286 | -0.17564 | 214 ft | 13 kts | 259° |
| 2026-05-06 19:48 | 51.15265 | -0.17714 | 208 ft | 14 kts | 257° |
| 2026-05-06 19:48 | 51.15242 | -0.17876 | 215 ft | 16 kts | 258° |
| 2026-05-06 19:49 | 51.15216 | -0.18066 | 212 ft | 19 kts | 257° |
| 2026-05-06 19:49 | 51.15188 | -0.18282 | 214 ft | 21 kts | 264° |
| 2026-05-06 19:49 | 51.15161 | -0.18523 | 213 ft | 23 kts | 257° |
| 2026-05-06 19:49 | 51.15124 | -0.18784 | 209 ft | 25 kts | 257° |
| 2026-05-06 19:50 | 51.15086 | -0.19063 | 216 ft | 24 kts | 258° |
| 2026-05-06 19:50 | 51.15063 | -0.19229 | 205 ft | 10 kts | 257° |
| 2026-05-06 19:50 | 51.15007 | -0.19267 | 209 ft | 9 kts | 165° |
| 2026-05-06 19:50 | 51.14961 | -0.19305 | 210 ft | 8 kts | 246° |
| 2026-05-06 19:51 | 51.14945 | -0.19413 | 212 ft | 13 kts | 257° |
| 2026-05-06 19:51 | 51.14920 | -0.19594 | 207 ft | 20 kts | 257° |
| 2026-05-06 19:51 | 51.14889 | -0.19827 | 213 ft | 23 kts | 258° |
| 2026-05-06 19:51 | 51.14852 | -0.20094 | 208 ft | 26 kts | 256° |
| 2026-05-06 19:52 | 51.14814 | -0.20373 | 209 ft | 24 kts | 258° |
| 2026-05-06 19:52 | 51.14780 | -0.20618 | 209 ft | 22 kts | 256° |
| 2026-05-06 19:52 | 51.14744 | -0.20866 | 208 ft | 24 kts | 259° |
| 2026-05-06 19:52 | 51.14711 | -0.21110 | 215 ft | 11 kts | 257° |
| 2026-05-06 19:53 | 51.14699 | -0.21201 | 211 ft | 0 kts | 257° |
| 2026-05-06 19:53 | 51.14698 | -0.21205 | 208 ft | 0 kts | 257° |
| 2026-05-06 19:53 | 51.14698 | -0.21206 | 208 ft | 1 kts | 257° |
| 2026-05-06 19:54 | 51.14693 | -0.21244 | 210 ft | 7 kts | 257° |
| 2026-05-06 19:54 | 51.14653 | -0.21331 | 211 ft | 12 kts | 197° |
| 2026-05-06 19:54 | 51.14565 | -0.21305 | 214 ft | 14 kts | 151° |
| 2026-05-06 19:54 | 51.14519 | -0.21202 | 216 ft | 9 kts | 103° |
| 2026-05-06 19:55 | 51.14527 | -0.21115 | 216 ft | 7 kts | 77° |
| 2026-05-06 19:55 | 51.14541 | -0.21026 | 217 ft | 10 kts | 77° |
| 2026-05-06 19:55 | 51.14591 | -0.20658 | 214 ft | 73 kts | 77° |
| 2026-05-06 19:55 | 51.14757 | -0.19466 | 212 ft | 144 kts | 78° |
| 2026-05-06 19:56 | 51.14991 | -0.17691 | 621 ft | 170 kts | 78° |
| 2026-05-06 19:56 | 51.15226 | -0.15856 | 1491 ft | 171 kts | 76° |
| 2026-05-06 19:56 | 51.15480 | -0.13962 | 2355 ft | 178 kts | 75° |
| 2026-05-06 19:56 | 51.15763 | -0.11943 | 2828 ft | 197 kts | 75° |
| 2026-05-06 19:57 | 51.16059 | -0.09692 | 3238 ft | 221 kts | 84° |
| 2026-05-06 19:57 | 51.15750 | -0.07237 | 3871 ft | 235 kts | 119° |
| 2026-05-06 19:57 | 51.14619 | -0.05359 | 4746 ft | 240 kts | 153° |
| 2026-05-06 19:57 | 51.13039 | -0.04541 | 5598 ft | 243 kts | 169° |
| 2026-05-06 19:58 | 51.11305 | -0.04028 | 6114 ft | 264 kts | 171° |
| 2026-05-06 19:58 | 51.09480 | -0.03509 | 6765 ft | 275 kts | 168° |
| 2026-05-06 19:58 | 51.08219 | -0.02992 | 6958 ft | 279 kts | 165° |
| 2026-05-06 19:58 | 51.05746 | -0.01851 | 7017 ft | 278 kts | 164° |
| 2026-05-06 19:59 | 51.04506 | -0.01257 | 7019 ft | 278 kts | 164° |
| 2026-05-06 19:59 | 51.02655 | -0.00365 | 7015 ft | 279 kts | 164° |
| 2026-05-06 19:59 | 51.00794 | 0.00530 | 7011 ft | 279 kts | 164° |
| 2026-05-06 19:59 | 50.98936 | 0.01420 | 7012 ft | 279 kts | 164° |
| 2026-05-06 20:00 | 50.97077 | 0.02306 | 7010 ft | 279 kts | 164° |
| 2026-05-06 20:00 | 50.95219 | 0.03187 | 7009 ft | 279 kts | 164° |
| 2026-05-06 20:00 | 50.93360 | 0.04067 | 6992 ft | 279 kts | 164° |
| 2026-05-06 20:00 | 50.91497 | 0.04947 | 6996 ft | 279 kts | 164° |
| 2026-05-06 20:01 | 50.89610 | 0.05838 | 6995 ft | 279 kts | 164° |
| 2026-05-06 20:01 | 50.87749 | 0.06714 | 6996 ft | 279 kts | 164° |
| 2026-05-06 20:01 | 50.85915 | 0.07577 | 6994 ft | 279 kts | 164° |
| 2026-05-06 20:01 | 50.84051 | 0.08452 | 6993 ft | 279 kts | 164° |
| 2026-05-06 20:02 | 50.82166 | 0.09336 | 6998 ft | 279 kts | 164° |
| 2026-05-06 20:02 | 50.80301 | 0.10208 | 6997 ft | 279 kts | 164° |
| 2026-05-06 20:02 | 50.78437 | 0.11079 | 6995 ft | 279 kts | 164° |
| 2026-05-06 20:02 | 50.76552 | 0.11772 | 6993 ft | 279 kts | 175° |
| 2026-05-06 20:03 | 50.74612 | 0.11665 | 7100 ft | 281 kts | 192° |
| 2026-05-06 20:03 | 50.72701 | 0.10942 | 7728 ft | 283 kts | 194° |
| 2026-05-06 20:03 | 50.70776 | 0.10231 | 8689 ft | 285 kts | 194° |
| 2026-05-06 20:03 | 50.68830 | 0.09531 | 9535 ft | 290 kts | 193° |
| 2026-05-06 20:04 | 50.66847 | 0.08823 | 10319 ft | 296 kts | 193° |
| 2026-05-06 20:04 | 50.64769 | 0.08078 | 10638 ft | 318 kts | 193° |
| 2026-05-06 20:04 | 50.62537 | 0.07276 | 10908 ft | 339 kts | 193° |
| 2026-05-06 20:04 | 50.60214 | 0.06440 | 11554 ft | 345 kts | 193° |
| 2026-05-06 20:05 | 50.57862 | 0.05596 | 12319 ft | 348 kts | 194° |
| 2026-05-06 20:05 | 50.55486 | 0.04744 | 13066 ft | 352 kts | 194° |
| 2026-05-06 20:05 | 50.53087 | 0.03884 | 13804 ft | 356 kts | 194° |
| 2026-05-06 20:05 | 50.50662 | 0.03014 | 14476 ft | 359 kts | 194° |
| 2026-05-06 20:06 | 50.48223 | 0.02139 | 15150 ft | 361 kts | 194° |
| 2026-05-06 20:06 | 50.45762 | 0.01256 | 15811 ft | 364 kts | 194° |
| 2026-05-06 20:06 | 50.43281 | 0.00367 | 16459 ft | 367 kts | 194° |
| 2026-05-06 20:06 | 50.40775 | -0.00531 | 17109 ft | 370 kts | 194° |
| 2026-05-06 20:07 | 50.38260 | -0.01431 | 17745 ft | 373 kts | 194° |
| 2026-05-06 20:07 | 50.35719 | -0.02340 | 18366 ft | 376 kts | 194° |
| 2026-05-06 20:07 | 50.33156 | -0.03255 | 18914 ft | 379 kts | 194° |
| 2026-05-06 20:07 | 50.30578 | -0.04176 | 19458 ft | 381 kts | 194° |
| 2026-05-06 20:08 | 50.27982 | -0.05102 | 19995 ft | 384 kts | 194° |
| 2026-05-06 20:08 | 50.25364 | -0.06035 | 20523 ft | 387 kts | 194° |
| 2026-05-06 20:08 | 50.22701 | -0.06733 | 21034 ft | 391 kts | 184° |
| 2026-05-06 20:08 | 50.19975 | -0.06459 | 21534 ft | 396 kts | 169° |
| 2026-05-06 20:09 | 50.17342 | -0.05140 | 22026 ft | 401 kts | 156° |
| 2026-05-06 20:09 | 50.14789 | -0.03338 | 22518 ft | 404 kts | 156° |
| 2026-05-06 20:09 | 50.12210 | -0.01557 | 23024 ft | 407 kts | 158° |
| 2026-05-06 20:09 | 50.09553 | 0.00005 | 23500 ft | 409 kts | 162° |
| 2026-05-06 20:10 | 50.06821 | 0.01290 | 23915 ft | 411 kts | 166° |
| 2026-05-06 20:10 | 50.04041 | 0.02366 | 24333 ft | 413 kts | 167° |
| 2026-05-06 20:10 | 50.01242 | 0.03456 | 24724 ft | 416 kts | 167° |
| 2026-05-06 20:10 | 49.98430 | 0.04562 | 25119 ft | 418 kts | 167° |
| 2026-05-06 20:11 | 49.95598 | 0.05677 | 25499 ft | 421 kts | 167° |
| 2026-05-06 20:11 | 49.92752 | 0.06796 | 25874 ft | 423 kts | 167° |
| 2026-05-06 20:11 | 49.89890 | 0.07919 | 26245 ft | 425 kts | 167° |
| 2026-05-06 20:11 | 49.87009 | 0.09047 | 26606 ft | 428 kts | 167° |
| 2026-05-06 20:12 | 49.84117 | 0.10179 | 26966 ft | 430 kts | 167° |
| 2026-05-06 20:12 | 49.81208 | 0.11316 | 27311 ft | 432 kts | 167° |
| 2026-05-06 20:12 | 49.78285 | 0.12457 | 27650 ft | 434 kts | 167° |
| 2026-05-06 20:12 | 49.75348 | 0.13602 | 27976 ft | 436 kts | 167° |
| 2026-05-06 20:13 | 49.72401 | 0.14749 | 28296 ft | 438 kts | 167° |
| 2026-05-06 20:13 | 49.69431 | 0.15905 | 28601 ft | 440 kts | 167° |
| 2026-05-06 20:13 | 49.66457 | 0.17067 | 28898 ft | 442 kts | 166° |
| 2026-05-06 20:13 | 49.63476 | 0.18266 | 29193 ft | 444 kts | 166° |
| 2026-05-06 20:14 | 49.60478 | 0.19483 | 29471 ft | 446 kts | 166° |
| 2026-05-06 20:14 | 49.57474 | 0.20701 | 29745 ft | 448 kts | 166° |
| 2026-05-06 20:14 | 49.54413 | 0.21937 | 30018 ft | 450 kts | 166° |
| 2026-05-06 20:14 | 49.51381 | 0.23157 | 30285 ft | 451 kts | 166° |
| 2026-05-06 20:15 | 49.48336 | 0.24379 | 30500 ft | 453 kts | 166° |
| 2026-05-06 20:15 | 49.45278 | 0.25603 | 30733 ft | 455 kts | 166° |
| 2026-05-06 20:15 | 49.42203 | 0.26831 | 30954 ft | 457 kts | 166° |
| 2026-05-06 20:15 | 49.39122 | 0.28061 | 31207 ft | 458 kts | 166° |
| 2026-05-06 20:16 | 49.35993 | 0.29309 | 31504 ft | 458 kts | 166° |
| 2026-05-06 20:16 | 49.32968 | 0.30513 | 31776 ft | 459 kts | 166° |
| 2026-05-06 20:16 | 49.29855 | 0.31754 | 32060 ft | 459 kts | 166° |
| 2026-05-06 20:16 | 49.26781 | 0.33033 | 32336 ft | 459 kts | 165° |
| 2026-05-06 20:17 | 49.23701 | 0.34344 | 32616 ft | 459 kts | 165° |
| 2026-05-06 20:17 | 49.20559 | 0.35683 | 32874 ft | 459 kts | 165° |
| 2026-05-06 20:17 | 49.17506 | 0.36978 | 33134 ft | 459 kts | 165° |
| 2026-05-06 20:17 | 49.14426 | 0.38276 | 33378 ft | 459 kts | 165° |
| 2026-05-06 20:18 | 49.11340 | 0.39573 | 33622 ft | 459 kts | 165° |
| 2026-05-06 20:18 | 49.08247 | 0.40869 | 33858 ft | 460 kts | 165° |
| 2026-05-06 20:18 | 49.05174 | 0.42156 | 34066 ft | 460 kts | 165° |
| 2026-05-06 20:18 | 49.02089 | 0.43445 | 34281 ft | 459 kts | 165° |
| 2026-05-06 20:19 | 48.99003 | 0.44734 | 34494 ft | 459 kts | 165° |
| 2026-05-06 20:19 | 48.95929 | 0.46016 | 34686 ft | 459 kts | 165° |
| 2026-05-06 20:19 | 48.92849 | 0.47299 | 34871 ft | 459 kts | 165° |
| 2026-05-06 20:19 | 48.89768 | 0.48581 | 35051 ft | 459 kts | 165° |
| 2026-05-06 20:20 | 48.86696 | 0.49857 | 35251 ft | 458 kts | 165° |
| 2026-05-06 20:20 | 48.83579 | 0.51151 | 35425 ft | 458 kts | 165° |
| 2026-05-06 20:20 | 48.80505 | 0.52425 | 35600 ft | 458 kts | 165° |
| 2026-05-06 20:20 | 48.77431 | 0.53691 | 35772 ft | 457 kts | 166° |
| 2026-05-06 20:21 | 48.74354 | 0.54910 | 35936 ft | 457 kts | 166° |
| 2026-05-06 20:21 | 48.71274 | 0.56108 | 36088 ft | 457 kts | 166° |
| 2026-05-06 20:21 | 48.68198 | 0.57302 | 36251 ft | 457 kts | 166° |
| 2026-05-06 20:21 | 48.65118 | 0.58500 | 36399 ft | 457 kts | 166° |
| 2026-05-06 20:22 | 48.62044 | 0.59698 | 36550 ft | 456 kts | 166° |
| 2026-05-06 20:22 | 48.58970 | 0.60898 | 36685 ft | 456 kts | 166° |
| 2026-05-06 20:22 | 48.55898 | 0.62096 | 36830 ft | 456 kts | 166° |
| 2026-05-06 20:22 | 48.52825 | 0.63293 | 36960 ft | 456 kts | 166° |
| 2026-05-06 20:23 | 48.46697 | 0.65747 | 36989 ft | 455 kts | 165° |
| 2026-05-06 20:23 | 48.40583 | 0.68254 | 36986 ft | 455 kts | 166° |
| 2026-05-06 20:24 | 48.34462 | 0.70744 | 36982 ft | 455 kts | 166° |
| 2026-05-06 20:24 | 48.28343 | 0.73219 | 36983 ft | 456 kts | 166° |
| 2026-05-06 20:25 | 48.22220 | 0.75677 | 36982 ft | 456 kts | 166° |
| 2026-05-06 20:25 | 48.16080 | 0.78087 | 36978 ft | 456 kts | 166° |
| 2026-05-06 20:26 | 48.09934 | 0.80494 | 36978 ft | 456 kts | 166° |
| 2026-05-06 20:26 | 48.03800 | 0.82896 | 36978 ft | 456 kts | 166° |
| 2026-05-06 20:27 | 47.97656 | 0.85298 | 36975 ft | 456 kts | 166° |
| 2026-05-06 20:27 | 47.91509 | 0.87694 | 36975 ft | 457 kts | 166° |
| 2026-05-06 20:28 | 47.85350 | 0.90090 | 36975 ft | 456 kts | 166° |
| 2026-05-06 20:28 | 47.79215 | 0.92470 | 36973 ft | 457 kts | 166° |
| 2026-05-06 20:29 | 47.73114 | 0.94831 | 36972 ft | 456 kts | 166° |
| 2026-05-06 20:29 | 47.66965 | 0.97205 | 36970 ft | 456 kts | 166° |
| 2026-05-06 20:30 | 47.57742 | 1.00755 | 36966 ft | 456 kts | 166° |
| 2026-05-06 20:31 | 47.51599 | 1.03113 | 36970 ft | 456 kts | 166° |
| 2026-05-06 20:31 | 47.45426 | 1.05286 | 36971 ft | 455 kts | 171° |
| 2026-05-06 20:32 | 47.39138 | 1.06277 | 36970 ft | 454 kts | 180° |
| 2026-05-06 20:32 | 47.32831 | 1.06182 | 36969 ft | 453 kts | 182° |
| 2026-05-06 20:33 | 47.27527 | 1.06064 | 36972 ft | 457 kts | 182° |
| 2026-05-06 20:33 | 47.21135 | 1.05925 | 36972 ft | 460 kts | 182° |
| 2026-05-06 20:34 | 47.14807 | 1.05782 | 36971 ft | 452 kts | 182° |
| 2026-05-06 20:34 | 47.08520 | 1.05219 | 36971 ft | 454 kts | 186° |
| 2026-05-06 20:35 | 47.02232 | 1.04447 | 36971 ft | 453 kts | 186° |
| 2026-05-06 20:35 | 46.95910 | 1.03679 | 36980 ft | 453 kts | 186° |
| 2026-05-06 20:36 | 46.89624 | 1.02918 | 36967 ft | 453 kts | 186° |
| 2026-05-06 20:36 | 46.83346 | 1.02161 | 36972 ft | 453 kts | 186° |
| 2026-05-06 20:37 | 46.77019 | 1.01401 | 36973 ft | 453 kts | 186° |
| 2026-05-06 20:37 | 46.70773 | 1.00652 | 36976 ft | 453 kts | 186° |
| 2026-05-06 20:38 | 46.64485 | 0.99900 | 36978 ft | 453 kts | 186° |
| 2026-05-06 20:38 | 46.58197 | 0.99150 | 36972 ft | 453 kts | 186° |
| 2026-05-06 20:39 | 46.51912 | 0.98402 | 36971 ft | 453 kts | 186° |
| 2026-05-06 20:39 | 46.45625 | 0.97656 | 36972 ft | 453 kts | 186° |
| 2026-05-06 20:40 | 46.39344 | 0.96912 | 36968 ft | 453 kts | 186° |
| 2026-05-06 20:40 | 46.33058 | 0.96169 | 36970 ft | 453 kts | 186° |
| 2026-05-06 20:41 | 46.26737 | 0.95424 | 36967 ft | 453 kts | 186° |
| 2026-05-06 20:41 | 46.20459 | 0.94685 | 36958 ft | 453 kts | 186° |
| 2026-05-06 20:42 | 46.14183 | 0.93948 | 36962 ft | 452 kts | 186° |
| 2026-05-06 20:42 | 46.07906 | 0.93213 | 36957 ft | 452 kts | 186° |
| 2026-05-06 20:43 | 46.01634 | 0.92480 | 36955 ft | 452 kts | 186° |
| 2026-05-06 20:43 | 45.95363 | 0.91749 | 36957 ft | 452 kts | 186° |
| 2026-05-06 20:44 | 45.89082 | 0.91018 | 36955 ft | 452 kts | 186° |
| 2026-05-06 20:44 | 45.82772 | 0.90286 | 36957 ft | 452 kts | 186° |
| 2026-05-06 20:45 | 45.76498 | 0.89559 | 36956 ft | 452 kts | 186° |
| 2026-05-06 20:45 | 45.70226 | 0.88835 | 36952 ft | 452 kts | 186° |
| 2026-05-06 20:46 | 45.63841 | 0.88101 | 36953 ft | 452 kts | 186° |
| 2026-05-06 20:46 | 45.57545 | 0.87378 | 36949 ft | 452 kts | 186° |
| 2026-05-06 20:47 | 45.51320 | 0.86663 | 36949 ft | 452 kts | 187° |
| 2026-05-06 20:47 | 45.45049 | 0.85945 | 36956 ft | 452 kts | 187° |
| 2026-05-06 20:48 | 45.38779 | 0.85228 | 36968 ft | 452 kts | 187° |
| 2026-05-06 20:48 | 45.32511 | 0.84513 | 36967 ft | 452 kts | 187° |
| 2026-05-06 20:49 | 45.26250 | 0.83801 | 36971 ft | 451 kts | 187° |
| 2026-05-06 20:49 | 45.19990 | 0.83090 | 36979 ft | 451 kts | 187° |
| 2026-05-06 20:50 | 45.13737 | 0.82382 | 36972 ft | 451 kts | 187° |
| 2026-05-06 20:50 | 45.07487 | 0.81676 | 36963 ft | 450 kts | 187° |
| 2026-05-06 20:51 | 45.01245 | 0.80972 | 36965 ft | 450 kts | 187° |
| 2026-05-06 20:51 | 44.95002 | 0.80270 | 36984 ft | 450 kts | 187° |
| 2026-05-06 20:52 | 44.88771 | 0.79570 | 36984 ft | 449 kts | 187° |
| 2026-05-06 20:52 | 44.82545 | 0.78872 | 36984 ft | 449 kts | 187° |
| 2026-05-06 20:53 | 44.76323 | 0.78176 | 36984 ft | 448 kts | 187° |
| 2026-05-06 20:53 | 44.70101 | 0.77482 | 36986 ft | 448 kts | 187° |
| 2026-05-06 20:54 | 44.63884 | 0.76790 | 36982 ft | 448 kts | 187° |
| 2026-05-06 20:54 | 44.57696 | 0.76103 | 36985 ft | 448 kts | 187° |
| 2026-05-06 20:55 | 44.51465 | 0.75412 | 36985 ft | 447 kts | 187° |
| 2026-05-06 20:55 | 44.45262 | 0.74727 | 36996 ft | 447 kts | 187° |
| 2026-05-06 20:56 | 44.39064 | 0.74043 | 37003 ft | 447 kts | 187° |
| 2026-05-06 20:56 | 44.32948 | 0.73370 | 37011 ft | 446 kts | 187° |
| 2026-05-06 20:57 | 44.26719 | 0.72686 | 37017 ft | 446 kts | 187° |
| 2026-05-06 20:57 | 44.20537 | 0.72008 | 37021 ft | 446 kts | 188° |
| 2026-05-06 20:58 | 44.14357 | 0.71332 | 37021 ft | 445 kts | 188° |
| 2026-05-06 20:58 | 44.08188 | 0.70658 | 37018 ft | 445 kts | 188° |
| 2026-05-06 20:59 | 44.02020 | 0.69986 | 37009 ft | 444 kts | 188° |
| 2026-05-06 20:59 | 43.95859 | 0.69315 | 37007 ft | 444 kts | 188° |
| 2026-05-06 21:00 | 43.89700 | 0.68647 | 37004 ft | 443 kts | 188° |
| 2026-05-06 21:00 | 43.83559 | 0.67982 | 37003 ft | 443 kts | 188° |
| 2026-05-06 21:01 | 43.77419 | 0.67318 | 37010 ft | 443 kts | 188° |
| 2026-05-06 21:01 | 43.71280 | 0.66656 | 37011 ft | 442 kts | 188° |
| 2026-05-06 21:02 | 43.65147 | 0.65996 | 37007 ft | 442 kts | 188° |
| 2026-05-06 21:02 | 43.59023 | 0.65338 | 37008 ft | 441 kts | 188° |
| 2026-05-06 21:03 | 43.53893 | 0.64787 | 37009 ft | 441 kts | 188° |
| 2026-05-06 21:03 | 43.47777 | 0.64133 | 37014 ft | 441 kts | 188° |
| 2026-05-06 21:04 | 43.41667 | 0.63480 | 37014 ft | 440 kts | 188° |
| 2026-05-06 21:04 | 43.35568 | 0.62830 | 37013 ft | 439 kts | 188° |
| 2026-05-06 21:05 | 43.29477 | 0.62182 | 37015 ft | 439 kts | 188° |
| 2026-05-06 21:05 | 43.23394 | 0.61537 | 37020 ft | 438 kts | 188° |
| 2026-05-06 21:06 | 43.17313 | 0.60892 | 37021 ft | 438 kts | 188° |
| 2026-05-06 21:06 | 43.11235 | 0.60249 | 37022 ft | 438 kts | 188° |
| 2026-05-06 21:07 | 43.05160 | 0.59608 | 37017 ft | 438 kts | 189° |
| 2026-05-06 21:07 | 42.99081 | 0.58968 | 37024 ft | 438 kts | 189° |
| 2026-05-06 21:08 | 42.93002 | 0.58328 | 37020 ft | 438 kts | 189° |
| 2026-05-06 21:08 | 42.86931 | 0.57692 | 37030 ft | 439 kts | 189° |
| 2026-05-06 21:09 | 42.80821 | 0.57053 | 37017 ft | 439 kts | 189° |
| 2026-05-06 21:09 | 42.74733 | 0.56407 | 37021 ft | 439 kts | 190° |
| 2026-05-06 21:10 | 42.68784 | 0.54876 | 37010 ft | 432 kts | 200° |
| 2026-05-06 21:10 | 42.63220 | 0.51952 | 36997 ft | 427 kts | 210° |
| 2026-05-06 21:11 | 42.57854 | 0.48489 | 36997 ft | 427 kts | 209° |
| 2026-05-06 21:11 | 42.52482 | 0.45065 | 36988 ft | 427 kts | 209° |
| 2026-05-06 21:12 | 42.47134 | 0.41659 | 36987 ft | 426 kts | 209° |
| 2026-05-06 21:12 | 42.41769 | 0.38244 | 36977 ft | 426 kts | 209° |
| 2026-05-06 21:13 | 42.36419 | 0.34844 | 36968 ft | 424 kts | 209° |
| 2026-05-06 21:13 | 42.31064 | 0.31448 | 36962 ft | 425 kts | 209° |
| 2026-05-06 21:14 | 42.25721 | 0.28067 | 36965 ft | 425 kts | 208° |
| 2026-05-06 21:14 | 42.20368 | 0.24684 | 36970 ft | 425 kts | 208° |
| 2026-05-06 21:15 | 42.15015 | 0.21309 | 36967 ft | 425 kts | 208° |
| 2026-05-06 21:15 | 42.09637 | 0.18015 | 36967 ft | 425 kts | 205° |
| 2026-05-06 21:16 | 42.03953 | 0.15670 | 36962 ft | 430 kts | 196° |
| 2026-05-06 21:16 | 41.98010 | 0.14513 | 36952 ft | 433 kts | 191° |
| 2026-05-06 21:17 | 41.92045 | 0.13623 | 36952 ft | 432 kts | 191° |
| 2026-05-06 21:17 | 41.86074 | 0.12717 | 36952 ft | 432 kts | 191° |
| 2026-05-06 21:18 | 41.80106 | 0.11823 | 36950 ft | 431 kts | 191° |
| 2026-05-06 21:18 | 41.74147 | 0.10933 | 36947 ft | 430 kts | 191° |
| 2026-05-06 21:19 | 41.68201 | 0.10047 | 36946 ft | 430 kts | 191° |
| 2026-05-06 21:19 | 41.62258 | 0.09163 | 36946 ft | 430 kts | 191° |
| 2026-05-06 21:20 | 41.56316 | 0.08281 | 36946 ft | 429 kts | 191° |
| 2026-05-06 21:20 | 41.50338 | 0.07394 | 36947 ft | 429 kts | 191° |
| 2026-05-06 21:21 | 41.44435 | 0.06521 | 36955 ft | 430 kts | 191° |
| 2026-05-06 21:21 | 41.38495 | 0.05644 | 36960 ft | 430 kts | 191° |
| 2026-05-06 21:22 | 41.32552 | 0.04769 | 36962 ft | 430 kts | 191° |
| 2026-05-06 21:22 | 41.26574 | 0.03890 | 36980 ft | 430 kts | 191° |
| 2026-05-06 21:23 | 41.20672 | 0.03024 | 36973 ft | 429 kts | 191° |
| 2026-05-06 21:23 | 41.14733 | 0.02154 | 36973 ft | 429 kts | 191° |
| 2026-05-06 21:24 | 41.08812 | 0.01289 | 36978 ft | 429 kts | 191° |
| 2026-05-06 21:24 | 41.02885 | 0.00423 | 36976 ft | 428 kts | 191° |
| 2026-05-06 21:25 | 40.96927 | -0.00443 | 36985 ft | 427 kts | 191° |
| 2026-05-06 21:25 | 40.91018 | -0.01303 | 36988 ft | 427 kts | 191° |
| 2026-05-06 21:26 | 40.85123 | -0.02158 | 36986 ft | 426 kts | 191° |
| 2026-05-06 21:26 | 40.79241 | -0.03010 | 36979 ft | 425 kts | 191° |
| 2026-05-06 21:27 | 40.73366 | -0.03860 | 36984 ft | 425 kts | 191° |
| 2026-05-06 21:27 | 40.67495 | -0.04708 | 36977 ft | 424 kts | 191° |
| 2026-05-06 21:28 | 40.61631 | -0.05554 | 36977 ft | 424 kts | 192° |
| 2026-05-06 21:28 | 40.55829 | -0.06747 | 36977 ft | 420 kts | 197° |
| 2026-05-06 21:29 | 40.50184 | -0.08621 | 36962 ft | 417 kts | 201° |
| 2026-05-06 21:29 | 40.44633 | -0.10841 | 36958 ft | 417 kts | 201° |
| 2026-05-06 21:30 | 40.39067 | -0.13028 | 36953 ft | 417 kts | 201° |
| 2026-05-06 21:30 | 40.33505 | -0.15219 | 36949 ft | 417 kts | 201° |
| 2026-05-06 21:31 | 40.27948 | -0.17410 | 36949 ft | 417 kts | 201° |
| 2026-05-06 21:31 | 40.22397 | -0.19595 | 36953 ft | 416 kts | 201° |
| 2026-05-06 21:32 | 40.16820 | -0.21786 | 36968 ft | 416 kts | 201° |
| 2026-05-06 21:32 | 40.11285 | -0.23957 | 36865 ft | 414 kts | 201° |
| 2026-05-06 21:32 | 40.08530 | -0.25036 | 36615 ft | 413 kts | 201° |
| 2026-05-06 21:33 | 40.05786 | -0.26109 | 36354 ft | 410 kts | 201° |
| 2026-05-06 21:33 | 40.03055 | -0.27176 | 36098 ft | 409 kts | 201° |
| 2026-05-06 21:33 | 40.00327 | -0.28242 | 35848 ft | 409 kts | 201° |
| 2026-05-06 21:33 | 39.97601 | -0.29305 | 35605 ft | 409 kts | 202° |
| 2026-05-06 21:34 | 39.94879 | -0.30366 | 35351 ft | 408 kts | 202° |
| 2026-05-06 21:34 | 39.92158 | -0.31427 | 34865 ft | 409 kts | 202° |
| 2026-05-06 21:34 | 39.89424 | -0.32491 | 34119 ft | 412 kts | 202° |
| 2026-05-06 21:34 | 39.86667 | -0.33563 | 33003 ft | 417 kts | 202° |
| 2026-05-06 21:35 | 39.83874 | -0.34652 | 31962 ft | 420 kts | 202° |
| 2026-05-06 21:35 | 39.81082 | -0.35737 | 31260 ft | 416 kts | 201° |
| 2026-05-06 21:35 | 39.78278 | -0.36822 | 30851 ft | 408 kts | 201° |
| 2026-05-06 21:35 | 39.75568 | -0.37872 | 30605 ft | 413 kts | 201° |
| 2026-05-06 21:36 | 39.73736 | -0.38586 | 30336 ft | 417 kts | 201° |
| 2026-05-06 21:36 | 39.70008 | -0.40033 | 29568 ft | 417 kts | 201° |
| 2026-05-06 21:36 | 39.68178 | -0.40740 | 29233 ft | 412 kts | 201° |
| 2026-05-06 21:36 | 39.65452 | -0.41792 | 28707 ft | 405 kts | 201° |
| 2026-05-06 21:37 | 39.62781 | -0.42823 | 28207 ft | 397 kts | 201° |
| 2026-05-06 21:37 | 39.60159 | -0.43834 | 27705 ft | 389 kts | 201° |
| 2026-05-06 21:37 | 39.57591 | -0.44826 | 27218 ft | 382 kts | 201° |
| 2026-05-06 21:37 | 39.55069 | -0.45799 | 26735 ft | 375 kts | 201° |
| 2026-05-06 21:38 | 39.52555 | -0.46769 | 26251 ft | 369 kts | 201° |
| 2026-05-06 21:38 | 39.50104 | -0.47715 | 25776 ft | 367 kts | 201° |
| 2026-05-06 21:38 | 39.47651 | -0.48660 | 25291 ft | 370 kts | 200° |
| 2026-05-06 21:38 | 39.45154 | -0.49577 | 24521 ft | 376 kts | 199° |
| 2026-05-06 21:39 | 39.42588 | -0.50489 | 23993 ft | 391 kts | 199° |
| 2026-05-06 21:39 | 39.39944 | -0.51423 | 23727 ft | 396 kts | 198° |
| 2026-05-06 21:39 | 39.37281 | -0.52362 | 23220 ft | 397 kts | 198° |
| 2026-05-06 21:39 | 39.34635 | -0.53297 | 22681 ft | 392 kts | 198° |
| 2026-05-06 21:40 | 39.32024 | -0.54220 | 22177 ft | 385 kts | 198° |
| 2026-05-06 21:40 | 39.29461 | -0.55129 | 21665 ft | 379 kts | 198° |
| 2026-05-06 21:40 | 39.26944 | -0.56023 | 21158 ft | 372 kts | 198° |
| 2026-05-06 21:40 | 39.24472 | -0.56901 | 20672 ft | 366 kts | 198° |
| 2026-05-06 21:41 | 39.22039 | -0.57765 | 20174 ft | 360 kts | 198° |
| 2026-05-06 21:41 | 39.19640 | -0.58617 | 19690 ft | 355 kts | 198° |
| 2026-05-06 21:41 | 39.17278 | -0.59455 | 19217 ft | 350 kts | 198° |
| 2026-05-06 21:41 | 39.14941 | -0.60283 | 18741 ft | 346 kts | 198° |
| 2026-05-06 21:42 | 39.12634 | -0.61099 | 18268 ft | 342 kts | 198° |
| 2026-05-06 21:42 | 39.10346 | -0.61909 | 17764 ft | 339 kts | 198° |
| 2026-05-06 21:42 | 39.08069 | -0.62714 | 17294 ft | 340 kts | 198° |
| 2026-05-06 21:42 | 39.05801 | -0.63514 | 16830 ft | 337 kts | 197° |
| 2026-05-06 21:43 | 39.03550 | -0.64309 | 16363 ft | 334 kts | 197° |
| 2026-05-06 21:43 | 39.01313 | -0.65098 | 15901 ft | 334 kts | 197° |
| 2026-05-06 21:43 | 38.99082 | -0.65884 | 15432 ft | 331 kts | 197° |
| 2026-05-06 21:43 | 38.96869 | -0.66663 | 14980 ft | 329 kts | 197° |
| 2026-05-06 21:44 | 38.94663 | -0.67440 | 14524 ft | 328 kts | 197° |
| 2026-05-06 21:44 | 38.92470 | -0.68212 | 14069 ft | 326 kts | 197° |
| 2026-05-06 21:44 | 38.90294 | -0.68977 | 13599 ft | 323 kts | 197° |
| 2026-05-06 21:44 | 38.88144 | -0.69733 | 13140 ft | 322 kts | 197° |
| 2026-05-06 21:45 | 38.85979 | -0.70494 | 12694 ft | 322 kts | 197° |
| 2026-05-06 21:45 | 38.83831 | -0.71249 | 12256 ft | 319 kts | 196° |
| 2026-05-06 21:45 | 38.81697 | -0.71997 | 11818 ft | 318 kts | 196° |
| 2026-05-06 21:45 | 38.79561 | -0.72746 | 11373 ft | 317 kts | 196° |
| 2026-05-06 21:46 | 38.77443 | -0.73487 | 10942 ft | 315 kts | 196° |
| 2026-05-06 21:46 | 38.75335 | -0.74224 | 10515 ft | 314 kts | 196° |
| 2026-05-06 21:46 | 38.73240 | -0.74957 | 10256 ft | 307 kts | 196° |
| 2026-05-06 21:46 | 38.71221 | -0.75661 | 10141 ft | 294 kts | 196° |
| 2026-05-06 21:47 | 38.69273 | -0.76341 | 9913 ft | 289 kts | 196° |
| 2026-05-06 21:47 | 38.67329 | -0.77020 | 9776 ft | 291 kts | 196° |
| 2026-05-06 21:47 | 38.65371 | -0.77704 | 9566 ft | 292 kts | 196° |
| 2026-05-06 21:47 | 38.63404 | -0.78392 | 9162 ft | 293 kts | 195° |
| 2026-05-06 21:48 | 38.61445 | -0.79077 | 8761 ft | 291 kts | 195° |
| 2026-05-06 21:48 | 38.59495 | -0.79759 | 8365 ft | 289 kts | 195° |
| 2026-05-06 21:48 | 38.57575 | -0.80430 | 8053 ft | 282 kts | 195° |
| 2026-05-06 21:48 | 38.55717 | -0.81079 | 7969 ft | 270 kts | 195° |
| 2026-05-06 21:49 | 38.53973 | -0.81732 | 7925 ft | 255 kts | 200° |
| 2026-05-06 21:49 | 38.52386 | -0.82690 | 7624 ft | 251 kts | 207° |
| 2026-05-06 21:49 | 38.50840 | -0.83732 | 7266 ft | 251 kts | 207° |
| 2026-05-06 21:49 | 38.49300 | -0.84759 | 6918 ft | 249 kts | 206° |
| 2026-05-06 21:50 | 38.47805 | -0.85747 | 6777 ft | 236 kts | 206° |
| 2026-05-06 21:50 | 38.46380 | -0.86686 | 6648 ft | 225 kts | 206° |
| 2026-05-06 21:50 | 38.45004 | -0.87590 | 6368 ft | 222 kts | 206° |
| 2026-05-06 21:50 | 38.43636 | -0.88487 | 6020 ft | 221 kts | 205° |
| 2026-05-06 21:51 | 38.42274 | -0.89381 | 5712 ft | 218 kts | 205° |
| 2026-05-06 21:51 | 38.40962 | -0.90243 | 5605 ft | 206 kts | 205° |
| 2026-05-06 21:51 | 38.39722 | -0.91058 | 5456 ft | 196 kts | 205° |
| 2026-05-06 21:51 | 38.38511 | -0.91853 | 5151 ft | 195 kts | 204° |
| 2026-05-06 21:52 | 38.37305 | -0.92642 | 5033 ft | 197 kts | 204° |
| 2026-05-06 21:52 | 38.36043 | -0.93302 | 4939 ft | 193 kts | 185° |
| 2026-05-06 21:52 | 38.34748 | -0.93177 | 4921 ft | 187 kts | 158° |
| 2026-05-06 21:52 | 38.33669 | -0.92290 | 4891 ft | 186 kts | 131° |
| 2026-05-06 21:53 | 38.33045 | -0.90875 | 4726 ft | 185 kts | 104° |
| 2026-05-06 21:53 | 38.32829 | -0.89253 | 4574 ft | 183 kts | 99° |
| 2026-05-06 21:53 | 38.32615 | -0.87644 | 4305 ft | 184 kts | 100° |
| 2026-05-06 21:53 | 38.32393 | -0.86062 | 4196 ft | 181 kts | 101° |
| 2026-05-06 21:54 | 38.32172 | -0.84473 | 4188 ft | 183 kts | 100° |
| 2026-05-06 21:54 | 38.31965 | -0.82870 | 4079 ft | 183 kts | 99° |
| 2026-05-06 21:54 | 38.31770 | -0.81271 | 3881 ft | 183 kts | 100° |
| 2026-05-06 21:54 | 38.31548 | -0.79681 | 3641 ft | 182 kts | 101° |
| 2026-05-06 21:55 | 38.31325 | -0.78094 | 3405 ft | 183 kts | 101° |
| 2026-05-06 21:55 | 38.31104 | -0.76522 | 3159 ft | 177 kts | 100° |
| 2026-05-06 21:55 | 38.30896 | -0.75036 | 2939 ft | 162 kts | 100° |
| 2026-05-06 21:55 | 38.30709 | -0.73700 | 2721 ft | 145 kts | 100° |
| 2026-05-06 21:56 | 38.30534 | -0.72460 | 2533 ft | 145 kts | 100° |
| 2026-05-06 21:56 | 38.30360 | -0.71213 | 2333 ft | 141 kts | 100° |
| 2026-05-06 21:56 | 38.30187 | -0.69980 | 2153 ft | 141 kts | 100° |
| 2026-05-06 21:56 | 38.30015 | -0.68746 | 1961 ft | 141 kts | 100° |
| 2026-05-06 21:57 | 38.29843 | -0.67519 | 1777 ft | 141 kts | 99° |
| 2026-05-06 21:57 | 38.29672 | -0.66291 | 1579 ft | 141 kts | 99° |
| 2026-05-06 21:57 | 38.29499 | -0.65060 | 1386 ft | 142 kts | 99° |
| 2026-05-06 21:57 | 38.29328 | -0.63824 | 1193 ft | 143 kts | 99° |
| 2026-05-06 21:58 | 38.29158 | -0.62607 | 994 ft | 137 kts | 99° |
| 2026-05-06 21:58 | 38.28993 | -0.61402 | 819 ft | 138 kts | 98° |
| 2026-05-06 21:58 | 38.28826 | -0.60191 | 630 ft | 138 kts | 99° |
| 2026-05-06 21:58 | 38.28661 | -0.58989 | 437 ft | 137 kts | 99° |
| 2026-05-06 21:59 | 38.28493 | -0.57797 | 253 ft | 137 kts | 99° |
| 2026-05-06 21:59 | 38.28330 | -0.56619 | 122 ft | 129 kts | 99° |
| 2026-05-06 21:59 | 38.28223 | -0.55852 | 103 ft | 41 kts | 99° |
| 2026-05-06 21:59 | 38.28242 | -0.55549 | 96 ft | 24 kts | 71° |
| 2026-05-06 22:00 | 38.28287 | -0.55405 | 93 ft | 12 kts | 58° |
| 2026-05-06 22:00 | 38.28327 | -0.55408 | 94 ft | 5 kts | 323° |
| 2026-05-06 22:00 | 38.28344 | -0.55449 | 93 ft | 3 kts | 283° |
| 2026-05-06 22:00 | 38.28344 | -0.55451 | 94 ft | 0 kts | 282° |
| 2026-05-06 22:01 | 38.28345 | -0.55453 | 94 ft | 1 kts | 282° |
| 2026-05-06 22:02 | 38.28348 | -0.55482 | 95 ft | 5 kts | 279° |
| 2026-05-06 22:02 | 38.28354 | -0.55529 | 96 ft | 6 kts | 279° |
| 2026-05-06 22:02 | 38.28361 | -0.55579 | 98 ft | 6 kts | 279° |
| 2026-05-06 22:02 | 38.28392 | -0.55608 | 98 ft | 7 kts | 347° |
| 2026-05-06 22:03 | 38.28455 | -0.55601 | 96 ft | 10 kts | 8° |
| 2026-05-06 22:03 | 38.28501 | -0.55632 | 97 ft | 8 kts | 292° |
| 2026-05-06 22:03 | 38.28516 | -0.55709 | 98 ft | 10 kts | 279° |
| 2026-05-06 22:03 | 38.28528 | -0.55805 | 100 ft | 12 kts | 279° |
| 2026-05-06 22:04 | 38.28545 | -0.55920 | 101 ft | 15 kts | 281° |
| 2026-05-06 22:04 | 38.28541 | -0.56000 | 102 ft | 8 kts | 232° |
| 2026-05-06 22:04 | 38.28490 | -0.56023 | 102 ft | 7 kts | 189° |
| 2026-05-06 22:04 | 38.28446 | -0.56031 | 106 ft | 5 kts | 187° |
| 2026-05-06 22:05 | 38.28423 | -0.56005 | 107 ft | 6 kts | 124° |
| 2026-05-06 22:05 | 38.28411 | -0.55922 | 104 ft | 13 kts | 99° |
| 2026-05-06 22:05 | 38.28409 | -0.55887 | 105 ft | 5 kts | 84° |
| 2026-05-06 22:05 | 38.28442 | -0.55869 | 102 ft | 7 kts | 358° |
| 2026-05-06 22:06 | 38.28465 | -0.55863 | 101 ft | 1 kts | 10° |
| 2026-05-06 22:06 | 38.28470 | -0.55862 | 101 ft | 0 kts | 10° |